Al Rawdah — V7VM8 — position and weather

sailwx.info

Track history (hours):
 
Tides and Currents Weather Stations Pressure Air Temp Water Temp Dewpoint Dewpoint Depression Visibility Wind Speed Wind Dir Waves Ship Positions

Al Rawdah

Last reported at 2015-Mar-06 06:19 UTC. Time now 2015-Mar-06 09:09 UTC.
Position N 41°19' E 002°09'.

Length 307 m; draft 11.3 m.

Type: Ship (hazmat cat A). MMSI: 538004160.

Date/timePositionNaut miles runAvg speedWind from/ knotsBaromVisibWave heightAir tempDewpointWater temp
2015-Mar-06 06:19N 41°19' E 002°09'0 0.0
2015-Mar-06 04:19N 41°19' E 002°09'0 0.0
2015-Mar-06 03:25N 41°19' E 002°09'0 0.0
2015-Mar-06 02:32N 41°19' E 002°09'0 0.0
2015-Mar-06 01:32N 41°19' E 002°09'0 0.0
2015-Mar-06 00:33N 41°19' E 002°09'1 1.3
2015-Mar-05 23:29N 41°18' E 002°11'3 3.4
2015-Mar-05 22:33N 41°15' E 002°13'2 1.5
2015-Mar-05 21:33N 41°15' E 002°15'1 0.5
2015-Mar-05 20:33N 41°15' E 002°16'0 0.3
2015-Mar-05 19:33N 41°15' E 002°16'1 0.9
2015-Mar-05 18:33N 41°15' E 002°15'1 0.8
2015-Mar-05 17:33N 41°15' E 002°14'3 3.3
2015-Mar-05 16:33N 41°14' E 002°09'0 0.3
2015-Mar-05 15:33N 41°14' E 002°09'1 1.0
2015-Mar-05 14:33N 41°13' E 002°09'7 6.9
2015-Mar-05 13:33N 41°08' E 002°03'1212.4
2015-Mar-05 12:33N 40°59' E 001°51'1414.1
2015-Mar-05 11:32N 40°48' E 001°39'1313.3
2015-Mar-05 10:33N 40°38' E 001°27'1313.3
2015-Mar-05 09:33N 40°29' E 001°15'1413.5
2015-Mar-05 08:33N 40°20' E 001°01'6713.3
2015-Mar-05 03:33N 39°35' W 000°02'1313.4
2015-Mar-05 02:33N 39°26' W 000°15'3 3.3
2015-Mar-05 01:31N 39°27' W 000°19'0 0.0
2015-Mar-05 00:31N 39°27' W 000°19'0 0.0
2015-Mar-04 23:31N 39°27' W 000°19'0 0.0
2015-Mar-04 22:31N 39°27' W 000°19'0 0.1
2015-Mar-04 21:28N 39°27' W 000°19'0 0.1
2015-Mar-04 20:31N 39°27' W 000°19'0 0.0
2015-Mar-04 19:31N 39°27' W 000°19'0 0.0
2015-Mar-04 18:31N 39°27' W 000°19'0 0.0
2015-Mar-04 17:31N 39°27' W 000°19'0 0.0
2015-Mar-04 16:31N 39°27' W 000°19'0 0.0
2015-Mar-04 15:31N 39°27' W 000°19'0 0.0
2015-Mar-04 14:31N 39°27' W 000°19'0 0.0
2015-Mar-04 13:28N 39°27' W 000°19'0 0.0
2015-Mar-04 12:31N 39°27' W 000°19'0 0.0
2015-Mar-04 11:31N 39°27' W 000°19'0 0.0
2015-Mar-04 10:31N 39°27' W 000°19'0 0.0
2015-Mar-04 09:31N 39°27' W 000°19'0 0.0
2015-Mar-04 08:31N 39°27' W 000°19'0 0.0
2015-Mar-04 07:31N 39°27' W 000°19'0 0.0
2015-Mar-04 06:33N 39°27' W 000°19'4 4.0
2015-Mar-04 05:33N 39°24' W 000°15'3 3.0
2015-Mar-04 04:33N 39°22' W 000°12'4113.4
2015-Mar-04 01:29N 38°50' E 000°21'1311.7
2015-Mar-04 00:21N 38°37' E 000°24'1214.5
2015-Mar-03 23:31N 38°27' E 000°16'1414.5
2015-Mar-03 22:33N 38°15' E 000°06'1414.2
2015-Mar-03 21:33N 38°04' W 000°05'1414.2
2015-Mar-03 20:33N 37°52' W 000°14'1414.3
2015-Mar-03 19:33N 37°40' W 000°24'1413.5
2015-Mar-03 18:33N 37°30' W 000°35'1413.8
2015-Mar-03 17:33N 37°21' W 000°48'1414.4
2015-Mar-03 16:33N 37°11' W 001°02'1514.6
2015-Mar-03 15:33N 37°01' W 001°15'19817.8
2015-Mar-03 04:23N 36°01' W 005°10'21 0.9
2015-Mar-02 05:22N 35°54' W 005°35'5 5.4
2015-Mar-02 04:30N 35°54' W 005°41'15010.5
2015-Mar-01 14:18N 35°57' W 008°45'3111.3
2015-Mar-01 11:33N 35°59' W 009°24'1211.2
2015-Mar-01 10:31N 35°59' W 009°38'1310.8
2015-Mar-01 09:18N 35°60' W 009°54'8 8.9
2015-Mar-01 08:22N 36°01' W 010°04'17 9.0
2015-Mar-01 06:29N 36°02' W 010°26'11 9.2
2015-Mar-01 05:20N 36°03' W 010°39'53813.0
2015-Feb-27 12:04N 36°33' W 021°45'815.4
2015-Feb-27 11:34N 36°33' W 021°55'3315.2
2015-Feb-27 09:22N 36°33' W 022°36'1315.2
2015-Feb-27 08:31N 36°33' W 022°52'1515.7
2015-Feb-27 07:33N 36°33' W 023°11'1615.6
2015-Feb-27 06:34N 36°33' W 023°30'1615.9
2015-Feb-27 05:34N 36°33' W 023°50'1615.7
2015-Feb-27 04:34N 36°34' W 024°10'1515.4
2015-Feb-27 03:34N 36°33' W 024°29'1515.2
2015-Feb-27 02:34N 36°34' W 024°48'1515.1
2015-Feb-27 01:33N 36°34' W 025°07'1515.1
2015-Feb-27 00:34N 36°44' W 025°21'1514.8
2015-Feb-26 23:34N 36°48' W 025°39'1615.6
2015-Feb-26 22:33N 36°49' W 025°58'1615.6
2015-Feb-26 21:34N 36°50' W 026°18'1615.8
2015-Feb-26 20:34N 36°51' W 026°37'1615.9
2015-Feb-26 19:34N 36°53' W 026°57'1615.6
2015-Feb-26 18:33N 36°54' W 027°17'1515.5
2015-Feb-26 17:33N 36°55' W 027°36'1515.0
2015-Feb-26 16:33N 36°56' W 027°55'1515.3
2015-Feb-26 15:33N 36°59' W 028°14'1515.2
2015-Feb-26 14:33N 36°60' W 028°33'1615.7
2015-Feb-26 13:34N 37°00' W 028°52'1615.7
2015-Feb-26 12:33N 37°01' W 029°12'1615.6
2015-Feb-26 11:33N 37°02' W 029°31'1615.6
2015-Feb-26 10:33N 37°04' W 029°51'1615.5
2015-Feb-26 09:33N 37°05' W 030°10'1615.5
2015-Feb-26 08:33N 37°06' W 030°30'8215.3
2015-Feb-26 03:13N 37°13' W 032°12'  
Track history (hours):
 
Tides and Currents Weather Stations Pressure Air Temp Water Temp Dewpoint Dewpoint Depression Visibility Wind Speed Wind Dir Waves Ship Positions

Al Rawdah

Last reported at 2015-Mar-06 06:19 UTC. Time now 2015-Mar-06 09:09 UTC.
Position N 41°19' E 002°09'.

Length 307 m; draft 11.3 m.

Type: Ship (hazmat cat A). MMSI: 538004160.

Date/timePositionNaut miles runAvg speedWind from/ knotsBaromVisibWave heightAir tempDewpointWater temp
2015-Mar-06 06:19N 41°19' E 002°09'0 0.0
2015-Mar-06 04:19N 41°19' E 002°09'0 0.0
2015-Mar-06 03:25N 41°19' E 002°09'0 0.0
2015-Mar-06 02:32N 41°19' E 002°09'0 0.0
2015-Mar-06 01:32N 41°19' E 002°09'0 0.0
2015-Mar-06 00:33N 41°19' E 002°09'1 1.3
2015-Mar-05 23:29N 41°18' E 002°11'3 3.4
2015-Mar-05 22:33N 41°15' E 002°13'2 1.5
2015-Mar-05 21:33N 41°15' E 002°15'1 0.5
2015-Mar-05 20:33N 41°15' E 002°16'0 0.3
2015-Mar-05 19:33N 41°15' E 002°16'1 0.9
2015-Mar-05 18:33N 41°15' E 002°15'1 0.8
2015-Mar-05 17:33N 41°15' E 002°14'3 3.3
2015-Mar-05 16:33N 41°14' E 002°09'0 0.3
2015-Mar-05 15:33N 41°14' E 002°09'1 1.0
2015-Mar-05 14:33N 41°13' E 002°09'7 6.9
2015-Mar-05 13:33N 41°08' E 002°03'1212.4
2015-Mar-05 12:33N 40°59' E 001°51'1414.1
2015-Mar-05 11:32N 40°48' E 001°39'1313.3
2015-Mar-05 10:33N 40°38' E 001°27'1313.3
2015-Mar-05 09:33N 40°29' E 001°15'1413.5
2015-Mar-05 08:33N 40°20' E 001°01'6713.3
2015-Mar-05 03:33N 39°35' W 000°02'1313.4
2015-Mar-05 02:33N 39°26' W 000°15'3 3.3
2015-Mar-05 01:31N 39°27' W 000°19'0 0.0
2015-Mar-05 00:31N 39°27' W 000°19'0 0.0
2015-Mar-04 23:31N 39°27' W 000°19'0 0.0
2015-Mar-04 22:31N 39°27' W 000°19'0 0.1
2015-Mar-04 21:28N 39°27' W 000°19'0 0.1
2015-Mar-04 20:31N 39°27' W 000°19'0 0.0
2015-Mar-04 19:31N 39°27' W 000°19'0 0.0
2015-Mar-04 18:31N 39°27' W 000°19'0 0.0
2015-Mar-04 17:31N 39°27' W 000°19'0 0.0
2015-Mar-04 16:31N 39°27' W 000°19'0 0.0
2015-Mar-04 15:31N 39°27' W 000°19'0 0.0
2015-Mar-04 14:31N 39°27' W 000°19'0 0.0
2015-Mar-04 13:28N 39°27' W 000°19'0 0.0
2015-Mar-04 12:31N 39°27' W 000°19'0 0.0
2015-Mar-04 11:31N 39°27' W 000°19'0 0.0
2015-Mar-04 10:31N 39°27' W 000°19'0 0.0
2015-Mar-04 09:31N 39°27' W 000°19'0 0.0
2015-Mar-04 08:31N 39°27' W 000°19'0 0.0
2015-Mar-04 07:31N 39°27' W 000°19'0 0.0
2015-Mar-04 06:33N 39°27' W 000°19'4 4.0
2015-Mar-04 05:33N 39°24' W 000°15'3 3.0
2015-Mar-04 04:33N 39°22' W 000°12'4113.4
2015-Mar-04 01:29N 38°50' E 000°21'1311.7
2015-Mar-04 00:21N 38°37' E 000°24'1214.5
2015-Mar-03 23:31N 38°27' E 000°16'1414.5
2015-Mar-03 22:33N 38°15' E 000°06'1414.2
2015-Mar-03 21:33N 38°04' W 000°05'1414.2
2015-Mar-03 20:33N 37°52' W 000°14'1414.3
2015-Mar-03 19:33N 37°40' W 000°24'1413.5
2015-Mar-03 18:33N 37°30' W 000°35'1413.8
2015-Mar-03 17:33N 37°21' W 000°48'1414.4
2015-Mar-03 16:33N 37°11' W 001°02'1514.6
2015-Mar-03 15:33N 37°01' W 001°15'19817.8
2015-Mar-03 04:23N 36°01' W 005°10'21 0.9
2015-Mar-02 05:22N 35°54' W 005°35'5 5.4
2015-Mar-02 04:30N 35°54' W 005°41'15010.5
2015-Mar-01 14:18N 35°57' W 008°45'3111.3
2015-Mar-01 11:33N 35°59' W 009°24'1211.2
2015-Mar-01 10:31N 35°59' W 009°38'1310.8
2015-Mar-01 09:18N 35°60' W 009°54'8 8.9
2015-Mar-01 08:22N 36°01' W 010°04'17 9.0
2015-Mar-01 06:29N 36°02' W 010°26'11 9.2
2015-Mar-01 05:20N 36°03' W 010°39'53813.0
2015-Feb-27 12:04N 36°33' W 021°45'815.4
2015-Feb-27 11:34N 36°33' W 021°55'3315.2
2015-Feb-27 09:22N 36°33' W 022°36'1315.2
2015-Feb-27 08:31N 36°33' W 022°52'1515.7
2015-Feb-27 07:33N 36°33' W 023°11'1615.6
2015-Feb-27 06:34N 36°33' W 023°30'1615.9
2015-Feb-27 05:34N 36°33' W 023°50'1615.7
2015-Feb-27 04:34N 36°34' W 024°10'1515.4
2015-Feb-27 03:34N 36°33' W 024°29'1515.2
2015-Feb-27 02:34N 36°34' W 024°48'1515.1
2015-Feb-27 01:33N 36°34' W 025°07'1515.1
2015-Feb-27 00:34N 36°44' W 025°21'1514.8
2015-Feb-26 23:34N 36°48' W 025°39'1615.6
2015-Feb-26 22:33N 36°49' W 025°58'1615.6
2015-Feb-26 21:34N 36°50' W 026°18'1615.8
2015-Feb-26 20:34N 36°51' W 026°37'1615.9
2015-Feb-26 19:34N 36°53' W 026°57'1615.6
2015-Feb-26 18:33N 36°54' W 027°17'1515.5
2015-Feb-26 17:33N 36°55' W 027°36'1515.0
2015-Feb-26 16:33N 36°56' W 027°55'1515.3
2015-Feb-26 15:33N 36°59' W 028°14'1515.2
2015-Feb-26 14:33N 36°60' W 028°33'1615.7
2015-Feb-26 13:34N 37°00' W 028°52'1615.7
2015-Feb-26 12:33N 37°01' W 029°12'1615.6
2015-Feb-26 11:33N 37°02' W 029°31'1615.6
2015-Feb-26 10:33N 37°04' W 029°51'1615.5
2015-Feb-26 09:33N 37°05' W 030°10'1615.5
2015-Feb-26 08:33N 37°06' W 030°30'8215.3
2015-Feb-26 03:13N 37°13' W 032°12'  

Dump ship's entire track history